Aviation Digital Data Service (ADDS)

Output produced by METARs form (1644 UTC 30 October 2020)
found at http://www.aviationweather.gov/metar/data/
 
KAHN 301551Z 31008G20KT 10SM CLR 18/07 A3008 RMK AO2 SLP183 T01780067
KAHN 301135Z 3012/3112 30010G16KT P6SM SKC 
     FM301900 33007KT P6SM SKC 
     FM310200 04006KT P6SM SKC